sensor_id;sensor_type;location;lat;lon;timestamp;P1;durP1;ratioP1;P2;durP2;ratioP2
13475;SDS011;6810;63.824;20.288;2022-12-07T00:01:36;0.10;;;0.10;;
13475;SDS011;6810;63.824;20.288;2022-12-07T00:04:25;0.10;;;0.10;;
13475;SDS011;6810;63.824;20.288;2022-12-07T00:07:11;0.23;;;0.23;;
13475;SDS011;6810;63.824;20.288;2022-12-07T00:09:58;0.00;;;0.00;;
13475;SDS011;6810;63.824;20.288;2022-12-07T00:12:45;0.33;;;0.13;;
13475;SDS011;6810;63.824;20.288;2022-12-07T00:15:33;0.47;;;0.20;;
13475;SDS011;6810;63.824;20.288;2022-12-07T00:18:20;0.17;;;0.10;;
13475;SDS011;6810;63.824;20.288;2022-12-07T00:21:09;0.20;;;0.00;;
13475;SDS011;6810;63.824;20.288;2022-12-07T00:23:58;1.40;;;0.00;;
13475;SDS011;6810;63.824;20.288;2022-12-07T00:26:45;0.47;;;0.10;;
13475;SDS011;6810;63.824;20.288;2022-12-07T00:29:32;0.20;;;0.20;;
13475;SDS011;6810;63.824;20.288;2022-12-07T00:32:19;0.07;;;0.07;;
13475;SDS011;6810;63.824;20.288;2022-12-07T00:35:05;0.17;;;0.17;;
13475;SDS011;6810;63.824;20.288;2022-12-07T00:37:52;1.70;;;0.20;;
13475;SDS011;6810;63.824;20.288;2022-12-07T00:40:39;0.10;;;0.03;;
13475;SDS011;6810;63.824;20.288;2022-12-07T00:43:26;0.73;;;0.00;;
13475;SDS011;6810;63.824;20.288;2022-12-07T00:46:14;0.47;;;0.20;;
13475;SDS011;6810;63.824;20.288;2022-12-07T00:49:01;1.63;;;0.30;;
13475;SDS011;6810;63.824;20.288;2022-12-07T00:51:48;0.37;;;0.10;;
13475;SDS011;6810;63.824;20.288;2022-12-07T00:54:36;0.53;;;0.20;;
13475;SDS011;6810;63.824;20.288;2022-12-07T00:57:22;1.43;;;0.20;;
13475;SDS011;6810;63.824;20.288;2022-12-07T01:00:09;0.97;;;0.10;;
13475;SDS011;6810;63.824;20.288;2022-12-07T01:02:56;0.57;;;0.10;;
13475;SDS011;6810;63.824;20.288;2022-12-07T01:05:53;0.57;;;0.30;;
13475;SDS011;6810;63.824;20.288;2022-12-07T01:08:41;0.40;;;0.10;;
13475;SDS011;6810;63.824;20.288;2022-12-07T01:11:28;0.53;;;0.10;;
13475;SDS011;6810;63.824;20.288;2022-12-07T01:14:16;1.30;;;0.17;;
13475;SDS011;6810;63.824;20.288;2022-12-07T01:17:02;0.33;;;0.20;;
13475;SDS011;6810;63.824;20.288;2022-12-07T01:19:49;1.13;;;0.10;;
13475;SDS011;6810;63.824;20.288;2022-12-07T01:22:37;0.33;;;0.23;;
13475;SDS011;6810;63.824;20.288;2022-12-07T01:25:25;0.13;;;0.13;;
13475;SDS011;6810;63.824;20.288;2022-12-07T01:28:11;0.10;;;0.07;;
13475;SDS011;6810;63.824;20.288;2022-12-07T01:30:59;0.23;;;0.10;;
13475;SDS011;6810;63.824;20.288;2022-12-07T01:33:49;0.10;;;0.00;;
13475;SDS011;6810;63.824;20.288;2022-12-07T01:36:38;0.17;;;0.17;;
13475;SDS011;6810;63.824;20.288;2022-12-07T01:39:25;0.10;;;0.10;;
13475;SDS011;6810;63.824;20.288;2022-12-07T01:42:11;0.40;;;0.20;;
13475;SDS011;6810;63.824;20.288;2022-12-07T01:48:37;0.10;;;0.07;;
13475;SDS011;6810;63.824;20.288;2022-12-07T01:51:26;0.13;;;0.13;;
13475;SDS011;6810;63.824;20.288;2022-12-07T01:54:15;0.00;;;0.00;;
13475;SDS011;6810;63.824;20.288;2022-12-07T01:57:03;0.10;;;0.10;;
13475;SDS011;6810;63.824;20.288;2022-12-07T01:59:52;0.00;;;0.00;;
13475;SDS011;6810;63.824;20.288;2022-12-07T02:02:50;0.87;;;0.10;;
13475;SDS011;6810;63.824;20.288;2022-12-07T02:05:22;0.03;;;0.00;;
13475;SDS011;6810;63.824;20.288;2022-12-07T02:08:10;2.10;;;0.10;;
13475;SDS011;6810;63.824;20.288;2022-12-07T02:10:59;1.90;;;0.20;;
13475;SDS011;6810;63.824;20.288;2022-12-07T02:13:50;0.00;;;0.00;;
13475;SDS011;6810;63.824;20.288;2022-12-07T02:16:41;1.90;;;0.20;;
13475;SDS011;6810;63.824;20.288;2022-12-07T02:19:39;1.30;;;0.20;;
13475;SDS011;6810;63.824;20.288;2022-12-07T02:23:04;0.20;;;0.03;;
13475;SDS011;6810;63.824;20.288;2022-12-07T02:29:40;2.83;;;0.37;;
13475;SDS011;6810;63.824;20.288;2022-12-07T02:32:55;0.40;;;0.20;;
13475;SDS011;6810;63.824;20.288;2022-12-07T02:35:55;1.43;;;0.20;;
13475;SDS011;6810;63.824;20.288;2022-12-07T02:38:49;0.67;;;0.20;;
13475;SDS011;6810;63.824;20.288;2022-12-07T02:41:49;0.00;;;0.00;;
13475;SDS011;6810;63.824;20.288;2022-12-07T02:44:40;0.00;;;0.00;;
13475;SDS011;6810;63.824;20.288;2022-12-07T02:47:28;0.00;;;0.00;;
13475;SDS011;6810;63.824;20.288;2022-12-07T02:50:19;0.40;;;0.20;;
13475;SDS011;6810;63.824;20.288;2022-12-07T02:53:27;0.97;;;0.10;;
13475;SDS011;6810;63.824;20.288;2022-12-07T02:59:09;0.33;;;0.07;;
13475;SDS011;6810;63.824;20.288;2022-12-07T03:06:42;0.50;;;0.10;;
13475;SDS011;6810;63.824;20.288;2022-12-07T03:09:23;2.73;;;0.10;;
13475;SDS011;6810;63.824;20.288;2022-12-07T03:15:37;0.07;;;0.00;;
13475;SDS011;6810;63.824;20.288;2022-12-07T03:18:52;2.73;;;0.10;;
13475;SDS011;6810;63.824;20.288;2022-12-07T03:21:44;0.17;;;0.17;;
13475;SDS011;6810;63.824;20.288;2022-12-07T03:24:54;0.00;;;0.00;;
13475;SDS011;6810;63.824;20.288;2022-12-07T03:27:54;0.00;;;0.00;;
13475;SDS011;6810;63.824;20.288;2022-12-07T03:30:47;0.13;;;0.10;;
13475;SDS011;6810;63.824;20.288;2022-12-07T03:42:41;0.13;;;0.10;;
13475;SDS011;6810;63.824;20.288;2022-12-07T03:45:31;0.20;;;0.20;;
13475;SDS011;6810;63.824;20.288;2022-12-07T03:48:50;0.00;;;0.00;;
13475;SDS011;6810;63.824;20.288;2022-12-07T03:58:05;0.10;;;0.00;;
13475;SDS011;6810;63.824;20.288;2022-12-07T04:00:55;0.27;;;0.27;;
13475;SDS011;6810;63.824;20.288;2022-12-07T04:03:42;0.10;;;0.10;;
13475;SDS011;6810;63.824;20.288;2022-12-07T04:06:29;0.10;;;0.10;;
13475;SDS011;6810;63.824;20.288;2022-12-07T04:09:16;0.53;;;0.20;;
13475;SDS011;6810;63.824;20.288;2022-12-07T04:12:03;0.17;;;0.10;;
13475;SDS011;6810;63.824;20.288;2022-12-07T04:14:51;0.43;;;0.20;;
13475;SDS011;6810;63.824;20.288;2022-12-07T04:17:37;0.00;;;0.00;;
13475;SDS011;6810;63.824;20.288;2022-12-07T04:20:24;0.67;;;0.17;;
13475;SDS011;6810;63.824;20.288;2022-12-07T04:23:11;0.20;;;0.00;;
13475;SDS011;6810;63.824;20.288;2022-12-07T04:25:58;1.97;;;0.27;;
13475;SDS011;6810;63.824;20.288;2022-12-07T04:28:45;0.10;;;0.10;;
13475;SDS011;6810;63.824;20.288;2022-12-07T04:31:33;2.20;;;0.20;;
13475;SDS011;6810;63.824;20.288;2022-12-07T04:34:21;0.00;;;0.00;;
13475;SDS011;6810;63.824;20.288;2022-12-07T04:37:07;0.00;;;0.00;;
13475;SDS011;6810;63.824;20.288;2022-12-07T04:39:54;0.00;;;0.00;;
13475;SDS011;6810;63.824;20.288;2022-12-07T04:42:41;0.40;;;0.00;;
13475;SDS011;6810;63.824;20.288;2022-12-07T04:45:28;0.27;;;0.13;;
13475;SDS011;6810;63.824;20.288;2022-12-07T04:48:15;0.77;;;0.10;;
13475;SDS011;6810;63.824;20.288;2022-12-07T04:51:02;0.30;;;0.10;;
13475;SDS011;6810;63.824;20.288;2022-12-07T04:53:49;0.20;;;0.10;;
13475;SDS011;6810;63.824;20.288;2022-12-07T04:56:36;0.13;;;0.13;;
13475;SDS011;6810;63.824;20.288;2022-12-07T04:59:25;0.00;;;0.00;;
13475;SDS011;6810;63.824;20.288;2022-12-07T05:02:12;2.07;;;0.20;;
13475;SDS011;6810;63.824;20.288;2022-12-07T05:04:59;0.00;;;0.00;;
13475;SDS011;6810;63.824;20.288;2022-12-07T05:07:45;1.07;;;0.50;;
13475;SDS011;6810;63.824;20.288;2022-12-07T05:10:32;0.00;;;0.00;;
13475;SDS011;6810;63.824;20.288;2022-12-07T05:13:19;0.20;;;0.10;;
13475;SDS011;6810;63.824;20.288;2022-12-07T05:16:06;0.10;;;0.10;;
13475;SDS011;6810;63.824;20.288;2022-12-07T05:18:53;0.33;;;0.20;;
13475;SDS011;6810;63.824;20.288;2022-12-07T05:21:40;0.47;;;0.30;;
13475;SDS011;6810;63.824;20.288;2022-12-07T05:24:27;1.00;;;0.23;;
13475;SDS011;6810;63.824;20.288;2022-12-07T05:27:14;0.10;;;0.10;;
13475;SDS011;6810;63.824;20.288;2022-12-07T05:30:01;0.17;;;0.10;;
13475;SDS011;6810;63.824;20.288;2022-12-07T05:32:48;0.40;;;0.40;;
13475;SDS011;6810;63.824;20.288;2022-12-07T05:35:34;1.47;;;0.13;;
13475;SDS011;6810;63.824;20.288;2022-12-07T05:38:21;0.30;;;0.10;;
13475;SDS011;6810;63.824;20.288;2022-12-07T05:41:08;0.00;;;0.00;;
13475;SDS011;6810;63.824;20.288;2022-12-07T05:43:58;0.10;;;0.10;;
13475;SDS011;6810;63.824;20.288;2022-12-07T05:46:45;3.20;;;0.13;;
13475;SDS011;6810;63.824;20.288;2022-12-07T05:49:31;0.10;;;0.07;;
13475;SDS011;6810;63.824;20.288;2022-12-07T05:52:18;0.57;;;0.57;;
13475;SDS011;6810;63.824;20.288;2022-12-07T05:55:05;0.93;;;0.27;;
13475;SDS011;6810;63.824;20.288;2022-12-07T05:57:52;0.23;;;0.10;;
13475;SDS011;6810;63.824;20.288;2022-12-07T06:00:38;0.63;;;0.30;;
13475;SDS011;6810;63.824;20.288;2022-12-07T06:03:25;0.10;;;0.10;;
13475;SDS011;6810;63.824;20.288;2022-12-07T06:06:11;0.83;;;0.20;;
13475;SDS011;6810;63.824;20.288;2022-12-07T06:08:58;0.57;;;0.20;;
13475;SDS011;6810;63.824;20.288;2022-12-07T06:11:45;0.30;;;0.20;;
13475;SDS011;6810;63.824;20.288;2022-12-07T06:14:31;0.27;;;0.20;;
13475;SDS011;6810;63.824;20.288;2022-12-07T06:17:17;0.10;;;0.10;;
13475;SDS011;6810;63.824;20.288;2022-12-07T06:20:05;1.27;;;0.20;;
13475;SDS011;6810;63.824;20.288;2022-12-07T06:22:52;0.40;;;0.40;;
13475;SDS011;6810;63.824;20.288;2022-12-07T06:25:39;2.33;;;0.20;;
13475;SDS011;6810;63.824;20.288;2022-12-07T06:28:26;1.13;;;0.20;;
13475;SDS011;6810;63.824;20.288;2022-12-07T06:31:12;0.13;;;0.10;;
13475;SDS011;6810;63.824;20.288;2022-12-07T06:34:00;2.07;;;0.40;;
13475;SDS011;6810;63.824;20.288;2022-12-07T06:36:49;0.30;;;0.30;;
13475;SDS011;6810;63.824;20.288;2022-12-07T06:39:40;2.73;;;0.20;;
13475;SDS011;6810;63.824;20.288;2022-12-07T06:42:27;0.30;;;0.20;;
13475;SDS011;6810;63.824;20.288;2022-12-07T06:45:14;0.10;;;0.10;;
13475;SDS011;6810;63.824;20.288;2022-12-07T06:48:01;0.10;;;0.10;;
13475;SDS011;6810;63.824;20.288;2022-12-07T06:50:48;0.80;;;0.13;;
13475;SDS011;6810;63.824;20.288;2022-12-07T06:53:35;0.40;;;0.23;;
13475;SDS011;6810;63.824;20.288;2022-12-07T06:56:22;0.17;;;0.17;;
13475;SDS011;6810;63.824;20.288;2022-12-07T06:59:10;0.50;;;0.37;;
13475;SDS011;6810;63.824;20.288;2022-12-07T07:01:56;0.63;;;0.17;;
13475;SDS011;6810;63.824;20.288;2022-12-07T07:04:43;1.30;;;0.60;;
13475;SDS011;6810;63.824;20.288;2022-12-07T07:07:30;0.77;;;0.47;;
13475;SDS011;6810;63.824;20.288;2022-12-07T07:10:37;3.77;;;0.50;;
13475;SDS011;6810;63.824;20.288;2022-12-07T07:13:24;0.70;;;0.60;;
13475;SDS011;6810;63.824;20.288;2022-12-07T07:16:11;1.80;;;0.50;;
13475;SDS011;6810;63.824;20.288;2022-12-07T07:18:58;6.33;;;1.07;;
13475;SDS011;6810;63.824;20.288;2022-12-07T07:21:45;0.90;;;0.20;;
13475;SDS011;6810;63.824;20.288;2022-12-07T07:24:31;0.23;;;0.23;;
13475;SDS011;6810;63.824;20.288;2022-12-07T07:27:18;0.33;;;0.33;;
13475;SDS011;6810;63.824;20.288;2022-12-07T07:30:05;0.93;;;0.20;;
13475;SDS011;6810;63.824;20.288;2022-12-07T07:33:00;0.30;;;0.30;;
13475;SDS011;6810;63.824;20.288;2022-12-07T07:35:47;0.90;;;0.40;;
13475;SDS011;6810;63.824;20.288;2022-12-07T07:38:34;0.97;;;0.17;;
13475;SDS011;6810;63.824;20.288;2022-12-07T07:41:21;0.63;;;0.63;;
13475;SDS011;6810;63.824;20.288;2022-12-07T07:44:12;0.33;;;0.30;;
13475;SDS011;6810;63.824;20.288;2022-12-07T07:47:01;0.40;;;0.40;;
13475;SDS011;6810;63.824;20.288;2022-12-07T07:49:48;0.50;;;0.40;;
13475;SDS011;6810;63.824;20.288;2022-12-07T07:52:35;0.37;;;0.23;;
13475;SDS011;6810;63.824;20.288;2022-12-07T07:55:21;0.50;;;0.40;;
13475;SDS011;6810;63.824;20.288;2022-12-07T07:58:08;2.00;;;0.50;;
13475;SDS011;6810;63.824;20.288;2022-12-07T08:00:55;4.43;;;0.57;;
13475;SDS011;6810;63.824;20.288;2022-12-07T08:03:42;2.37;;;0.30;;
13475;SDS011;6810;63.824;20.288;2022-12-07T08:06:24;2.93;;;0.60;;
13475;SDS011;6810;63.824;20.288;2022-12-07T08:08:57;2.27;;;1.07;;
13475;SDS011;6810;63.824;20.288;2022-12-07T08:11:44;0.70;;;0.60;;
13475;SDS011;6810;63.824;20.288;2022-12-07T08:14:31;1.00;;;0.40;;
13475;SDS011;6810;63.824;20.288;2022-12-07T08:17:18;0.20;;;0.20;;
13475;SDS011;6810;63.824;20.288;2022-12-07T08:20:05;0.23;;;0.20;;
13475;SDS011;6810;63.824;20.288;2022-12-07T08:22:53;4.03;;;0.73;;
13475;SDS011;6810;63.824;20.288;2022-12-07T08:25:40;0.93;;;0.30;;
13475;SDS011;6810;63.824;20.288;2022-12-07T08:28:27;1.77;;;0.67;;
13475;SDS011;6810;63.824;20.288;2022-12-07T08:30:58;0.50;;;0.40;;
13475;SDS011;6810;63.824;20.288;2022-12-07T08:33:47;5.00;;;0.50;;
13475;SDS011;6810;63.824;20.288;2022-12-07T08:36:34;5.27;;;0.63;;
13475;SDS011;6810;63.824;20.288;2022-12-07T08:39:23;0.40;;;0.30;;
13475;SDS011;6810;63.824;20.288;2022-12-07T08:42:09;1.43;;;0.40;;
13475;SDS011;6810;63.824;20.288;2022-12-07T08:44:56;0.60;;;0.60;;
13475;SDS011;6810;63.824;20.288;2022-12-07T08:48:06;1.30;;;0.70;;
13475;SDS011;6810;63.824;20.288;2022-12-07T08:50:57;1.23;;;0.57;;
13475;SDS011;6810;63.824;20.288;2022-12-07T08:53:44;1.80;;;1.30;;
13475;SDS011;6810;63.824;20.288;2022-12-07T08:56:31;2.27;;;0.80;;
13475;SDS011;6810;63.824;20.288;2022-12-07T08:59:24;1.70;;;0.60;;
13475;SDS011;6810;63.824;20.288;2022-12-07T09:02:12;1.70;;;0.90;;
13475;SDS011;6810;63.824;20.288;2022-12-07T09:04:59;1.23;;;0.83;;
13475;SDS011;6810;63.824;20.288;2022-12-07T09:07:47;1.00;;;0.80;;
13475;SDS011;6810;63.824;20.288;2022-12-07T09:10:36;2.20;;;1.07;;
13475;SDS011;6810;63.824;20.288;2022-12-07T09:13:23;0.63;;;0.50;;
13475;SDS011;6810;63.824;20.288;2022-12-07T09:16:10;1.03;;;0.90;;
13475;SDS011;6810;63.824;20.288;2022-12-07T09:18:57;2.50;;;0.77;;
13475;SDS011;6810;63.824;20.288;2022-12-07T09:21:44;0.37;;;0.37;;
13475;SDS011;6810;63.824;20.288;2022-12-07T09:24:31;0.93;;;0.70;;
13475;SDS011;6810;63.824;20.288;2022-12-07T09:27:18;0.97;;;0.57;;
13475;SDS011;6810;63.824;20.288;2022-12-07T09:30:05;1.90;;;0.53;;
13475;SDS011;6810;63.824;20.288;2022-12-07T09:32:53;0.87;;;0.70;;
13475;SDS011;6810;63.824;20.288;2022-12-07T09:35:45;0.77;;;0.60;;
13475;SDS011;6810;63.824;20.288;2022-12-07T09:38:32;0.80;;;0.53;;
13475;SDS011;6810;63.824;20.288;2022-12-07T09:41:19;0.93;;;0.70;;
13475;SDS011;6810;63.824;20.288;2022-12-07T09:44:12;1.07;;;0.47;;
13475;SDS011;6810;63.824;20.288;2022-12-07T09:47:03;1.43;;;0.73;;
13475;SDS011;6810;63.824;20.288;2022-12-07T09:49:50;0.50;;;0.50;;
13475;SDS011;6810;63.824;20.288;2022-12-07T09:52:37;0.90;;;0.77;;
13475;SDS011;6810;63.824;20.288;2022-12-07T09:55:26;1.73;;;0.60;;
13475;SDS011;6810;63.824;20.288;2022-12-07T09:58:19;1.97;;;0.60;;
13475;SDS011;6810;63.824;20.288;2022-12-07T10:01:11;1.80;;;0.93;;
13475;SDS011;6810;63.824;20.288;2022-12-07T10:04:05;0.60;;;0.60;;
13475;SDS011;6810;63.824;20.288;2022-12-07T10:06:57;1.03;;;0.70;;
13475;SDS011;6810;63.824;20.288;2022-12-07T10:09:43;1.70;;;1.00;;
13475;SDS011;6810;63.824;20.288;2022-12-07T10:12:30;1.33;;;0.70;;
13475;SDS011;6810;63.824;20.288;2022-12-07T10:15:43;0.90;;;0.60;;
13475;SDS011;6810;63.824;20.288;2022-12-07T10:18:43;1.43;;;0.60;;
13475;SDS011;6810;63.824;20.288;2022-12-07T10:21:30;1.37;;;0.60;;
13475;SDS011;6810;63.824;20.288;2022-12-07T10:24:17;0.97;;;0.70;;
13475;SDS011;6810;63.824;20.288;2022-12-07T10:29:38;1.00;;;0.83;;
13475;SDS011;6810;63.824;20.288;2022-12-07T10:32:35;0.53;;;0.50;;
13475;SDS011;6810;63.824;20.288;2022-12-07T10:35:27;1.10;;;1.00;;
13475;SDS011;6810;63.824;20.288;2022-12-07T10:38:16;1.63;;;0.53;;
13475;SDS011;6810;63.824;20.288;2022-12-07T10:41:04;1.97;;;0.50;;
13475;SDS011;6810;63.824;20.288;2022-12-07T10:43:54;0.27;;;0.23;;
13475;SDS011;6810;63.824;20.288;2022-12-07T10:49:44;0.63;;;0.63;;
13475;SDS011;6810;63.824;20.288;2022-12-07T10:55:15;0.97;;;0.80;;
13475;SDS011;6810;63.824;20.288;2022-12-07T10:58:36;7.30;;;0.90;;
13475;SDS011;6810;63.824;20.288;2022-12-07T11:01:54;1.50;;;0.97;;
13475;SDS011;6810;63.824;20.288;2022-12-07T11:08:19;5.80;;;0.73;;
13475;SDS011;6810;63.824;20.288;2022-12-07T11:11:21;0.50;;;0.37;;
13475;SDS011;6810;63.824;20.288;2022-12-07T11:17:19;0.70;;;0.50;;
13475;SDS011;6810;63.824;20.288;2022-12-07T11:20:32;1.57;;;0.70;;
13475;SDS011;6810;63.824;20.288;2022-12-07T11:23:39;0.63;;;0.40;;
13475;SDS011;6810;63.824;20.288;2022-12-07T11:26:39;1.03;;;0.30;;
13475;SDS011;6810;63.824;20.288;2022-12-07T11:36:01;0.43;;;0.30;;
13475;SDS011;6810;63.824;20.288;2022-12-07T11:38:55;0.43;;;0.37;;
13475;SDS011;6810;63.824;20.288;2022-12-07T11:41:45;1.80;;;0.60;;
13475;SDS011;6810;63.824;20.288;2022-12-07T11:44:44;0.50;;;0.50;;
13475;SDS011;6810;63.824;20.288;2022-12-07T11:47:47;1.90;;;0.50;;
13475;SDS011;6810;63.824;20.288;2022-12-07T11:50:56;1.80;;;0.83;;
13475;SDS011;6810;63.824;20.288;2022-12-07T11:53:49;1.23;;;0.50;;
13475;SDS011;6810;63.824;20.288;2022-12-07T11:56:39;0.40;;;0.40;;
13475;SDS011;6810;63.824;20.288;2022-12-07T11:59:31;2.10;;;0.90;;
13475;SDS011;6810;63.824;20.288;2022-12-07T12:02:24;0.57;;;0.37;;
13475;SDS011;6810;63.824;20.288;2022-12-07T12:05:19;2.27;;;1.17;;
13475;SDS011;6810;63.824;20.288;2022-12-07T12:08:13;0.57;;;0.40;;
13475;SDS011;6810;63.824;20.288;2022-12-07T12:21:10;0.63;;;0.40;;
13475;SDS011;6810;63.824;20.288;2022-12-07T12:24:08;1.00;;;0.87;;
13475;SDS011;6810;63.824;20.288;2022-12-07T12:27:05;0.53;;;0.50;;
13475;SDS011;6810;63.824;20.288;2022-12-07T12:29:36;2.37;;;1.07;;
13475;SDS011;6810;63.824;20.288;2022-12-07T12:32:14;0.97;;;0.70;;
13475;SDS011;6810;63.824;20.288;2022-12-07T12:50:39;1.60;;;0.87;;
13475;SDS011;6810;63.824;20.288;2022-12-07T12:53:25;2.53;;;0.67;;
13475;SDS011;6810;63.824;20.288;2022-12-07T12:59:25;2.50;;;0.93;;
13475;SDS011;6810;63.824;20.288;2022-12-07T13:11:25;2.73;;;1.30;;
13475;SDS011;6810;63.824;20.288;2022-12-07T13:23:39;5.60;;;1.07;;
13475;SDS011;6810;63.824;20.288;2022-12-07T13:26:42;1.13;;;0.83;;
13475;SDS011;6810;63.824;20.288;2022-12-07T13:29:29;0.30;;;0.30;;
13475;SDS011;6810;63.824;20.288;2022-12-07T13:32:24;2.70;;;0.70;;
13475;SDS011;6810;63.824;20.288;2022-12-07T13:35:31;2.33;;;0.93;;
13475;SDS011;6810;63.824;20.288;2022-12-07T13:38:28;5.43;;;0.80;;
13475;SDS011;6810;63.824;20.288;2022-12-07T13:41:20;0.60;;;0.40;;
13475;SDS011;6810;63.824;20.288;2022-12-07T13:44:09;1.50;;;0.67;;
13475;SDS011;6810;63.824;20.288;2022-12-07T13:47:06;0.67;;;0.37;;
13475;SDS011;6810;63.824;20.288;2022-12-07T13:49:59;1.63;;;0.37;;
13475;SDS011;6810;63.824;20.288;2022-12-07T13:52:46;0.30;;;0.20;;
13475;SDS011;6810;63.824;20.288;2022-12-07T13:55:33;0.20;;;0.20;;
13475;SDS011;6810;63.824;20.288;2022-12-07T13:58:20;0.63;;;0.30;;
13475;SDS011;6810;63.824;20.288;2022-12-07T14:01:08;0.40;;;0.30;;
13475;SDS011;6810;63.824;20.288;2022-12-07T14:03:55;0.90;;;0.43;;
13475;SDS011;6810;63.824;20.288;2022-12-07T14:07:18;0.60;;;0.20;;
13475;SDS011;6810;63.824;20.288;2022-12-07T14:13:37;0.57;;;0.40;;
13475;SDS011;6810;63.824;20.288;2022-12-07T14:16:54;0.50;;;0.40;;
13475;SDS011;6810;63.824;20.288;2022-12-07T14:22:36;0.77;;;0.50;;
13475;SDS011;6810;63.824;20.288;2022-12-07T14:25:27;1.67;;;0.60;;
13475;SDS011;6810;63.824;20.288;2022-12-07T14:31:01;0.70;;;0.50;;
13475;SDS011;6810;63.824;20.288;2022-12-07T14:33:28;0.90;;;0.50;;
13475;SDS011;6810;63.824;20.288;2022-12-07T14:36:15;1.60;;;0.30;;
13475;SDS011;6810;63.824;20.288;2022-12-07T14:39:02;0.93;;;0.40;;
13475;SDS011;6810;63.824;20.288;2022-12-07T14:41:49;0.80;;;0.57;;
13475;SDS011;6810;63.824;20.288;2022-12-07T14:44:39;1.97;;;0.43;;
13475;SDS011;6810;63.824;20.288;2022-12-07T14:47:26;0.90;;;0.57;;
13475;SDS011;6810;63.824;20.288;2022-12-07T14:50:35;1.23;;;0.40;;
13475;SDS011;6810;63.824;20.288;2022-12-07T14:53:49;1.13;;;0.53;;
13475;SDS011;6810;63.824;20.288;2022-12-07T14:56:37;0.37;;;0.27;;
13475;SDS011;6810;63.824;20.288;2022-12-07T14:59:24;1.07;;;0.30;;
13475;SDS011;6810;63.824;20.288;2022-12-07T15:02:12;0.47;;;0.33;;
13475;SDS011;6810;63.824;20.288;2022-12-07T15:05:00;0.50;;;0.50;;
13475;SDS011;6810;63.824;20.288;2022-12-07T15:07:47;0.97;;;0.60;;
13475;SDS011;6810;63.824;20.288;2022-12-07T15:10:35;0.37;;;0.20;;
13475;SDS011;6810;63.824;20.288;2022-12-07T15:13:21;0.20;;;0.10;;
13475;SDS011;6810;63.824;20.288;2022-12-07T15:16:09;0.17;;;0.17;;
13475;SDS011;6810;63.824;20.288;2022-12-07T15:19:20;0.73;;;0.40;;
13475;SDS011;6810;63.824;20.288;2022-12-07T15:22:10;0.47;;;0.20;;
13475;SDS011;6810;63.824;20.288;2022-12-07T15:25:04;0.13;;;0.13;;
13475;SDS011;6810;63.824;20.288;2022-12-07T15:27:51;0.40;;;0.40;;
13475;SDS011;6810;63.824;20.288;2022-12-07T15:30:38;3.37;;;0.33;;
13475;SDS011;6810;63.824;20.288;2022-12-07T15:33:46;0.43;;;0.30;;
13475;SDS011;6810;63.824;20.288;2022-12-07T15:36:33;0.17;;;0.10;;
13475;SDS011;6810;63.824;20.288;2022-12-07T15:39:21;0.40;;;0.30;;
13475;SDS011;6810;63.824;20.288;2022-12-07T15:42:08;1.17;;;0.40;;
13475;SDS011;6810;63.824;20.288;2022-12-07T15:44:55;0.43;;;0.27;;
13475;SDS011;6810;63.824;20.288;2022-12-07T15:47:50;1.43;;;0.73;;
13475;SDS011;6810;63.824;20.288;2022-12-07T15:51:00;0.73;;;0.60;;
13475;SDS011;6810;63.824;20.288;2022-12-07T15:53:51;2.77;;;0.80;;
13475;SDS011;6810;63.824;20.288;2022-12-07T15:56:38;0.30;;;0.30;;
13475;SDS011;6810;63.824;20.288;2022-12-07T15:59:26;0.40;;;0.33;;
13475;SDS011;6810;63.824;20.288;2022-12-07T16:02:13;1.43;;;0.60;;
13475;SDS011;6810;63.824;20.288;2022-12-07T16:05:05;1.70;;;0.60;;
13475;SDS011;6810;63.824;20.288;2022-12-07T16:07:52;1.67;;;0.70;;
13475;SDS011;6810;63.824;20.288;2022-12-07T16:10:39;1.23;;;0.83;;
13475;SDS011;6810;63.824;20.288;2022-12-07T16:13:26;1.53;;;1.03;;
13475;SDS011;6810;63.824;20.288;2022-12-07T16:16:14;0.93;;;0.70;;
13475;SDS011;6810;63.824;20.288;2022-12-07T16:19:02;0.37;;;0.30;;
13475;SDS011;6810;63.824;20.288;2022-12-07T16:21:49;0.30;;;0.30;;
13475;SDS011;6810;63.824;20.288;2022-12-07T16:24:36;9.23;;;0.67;;
13475;SDS011;6810;63.824;20.288;2022-12-07T16:27:22;3.03;;;0.63;;
13475;SDS011;6810;63.824;20.288;2022-12-07T16:30:11;0.60;;;0.60;;
13475;SDS011;6810;63.824;20.288;2022-12-07T16:32:58;1.17;;;0.73;;
13475;SDS011;6810;63.824;20.288;2022-12-07T16:35:45;0.63;;;0.40;;
13475;SDS011;6810;63.824;20.288;2022-12-07T16:38:32;2.37;;;0.87;;
13475;SDS011;6810;63.824;20.288;2022-12-07T16:41:19;0.83;;;0.40;;
13475;SDS011;6810;63.824;20.288;2022-12-07T16:44:07;0.37;;;0.37;;
13475;SDS011;6810;63.824;20.288;2022-12-07T16:46:56;1.03;;;0.70;;
13475;SDS011;6810;63.824;20.288;2022-12-07T16:49:43;1.43;;;0.80;;
13475;SDS011;6810;63.824;20.288;2022-12-07T16:52:30;1.30;;;1.03;;
13475;SDS011;6810;63.824;20.288;2022-12-07T16:55:17;1.30;;;0.63;;
13475;SDS011;6810;63.824;20.288;2022-12-07T16:58:04;1.67;;;1.10;;
13475;SDS011;6810;63.824;20.288;2022-12-07T17:00:52;1.43;;;0.67;;
13475;SDS011;6810;63.824;20.288;2022-12-07T17:03:39;1.13;;;1.03;;
13475;SDS011;6810;63.824;20.288;2022-12-07T17:06:26;0.63;;;0.63;;
13475;SDS011;6810;63.824;20.288;2022-12-07T17:09:15;0.87;;;0.50;;
13475;SDS011;6810;63.824;20.288;2022-12-07T17:12:02;2.20;;;1.13;;
13475;SDS011;6810;63.824;20.288;2022-12-07T17:14:49;1.67;;;1.20;;
13475;SDS011;6810;63.824;20.288;2022-12-07T17:17:34;2.00;;;1.37;;
13475;SDS011;6810;63.824;20.288;2022-12-07T17:20:21;2.27;;;1.83;;
13475;SDS011;6810;63.824;20.288;2022-12-07T17:23:10;3.63;;;1.67;;
13475;SDS011;6810;63.824;20.288;2022-12-07T17:26:03;1.93;;;1.30;;
13475;SDS011;6810;63.824;20.288;2022-12-07T17:29:00;2.20;;;1.77;;
13475;SDS011;6810;63.824;20.288;2022-12-07T17:31:48;2.27;;;1.43;;
13475;SDS011;6810;63.824;20.288;2022-12-07T17:34:35;2.70;;;1.60;;
13475;SDS011;6810;63.824;20.288;2022-12-07T17:37:22;2.50;;;1.27;;
13475;SDS011;6810;63.824;20.288;2022-12-07T17:40:16;1.83;;;1.20;;
13475;SDS011;6810;63.824;20.288;2022-12-07T17:43:02;2.03;;;1.33;;
13475;SDS011;6810;63.824;20.288;2022-12-07T17:45:49;2.77;;;1.17;;
13475;SDS011;6810;63.824;20.288;2022-12-07T17:48:36;2.27;;;1.17;;
13475;SDS011;6810;63.824;20.288;2022-12-07T17:51:23;1.60;;;1.23;;
13475;SDS011;6810;63.824;20.288;2022-12-07T17:54:09;1.93;;;0.80;;
13475;SDS011;6810;63.824;20.288;2022-12-07T17:56:57;2.53;;;1.00;;
13475;SDS011;6810;63.824;20.288;2022-12-07T17:59:43;4.27;;;1.90;;
13475;SDS011;6810;63.824;20.288;2022-12-07T18:02:37;1.17;;;0.47;;
13475;SDS011;6810;63.824;20.288;2022-12-07T18:05:24;1.30;;;0.90;;
13475;SDS011;6810;63.824;20.288;2022-12-07T18:08:11;2.37;;;1.00;;
13475;SDS011;6810;63.824;20.288;2022-12-07T18:10:58;3.53;;;0.73;;
13475;SDS011;6810;63.824;20.288;2022-12-07T18:13:45;0.87;;;0.50;;
13475;SDS011;6810;63.824;20.288;2022-12-07T18:16:32;0.47;;;0.13;;
13475;SDS011;6810;63.824;20.288;2022-12-07T18:19:22;0.87;;;0.40;;
13475;SDS011;6810;63.824;20.288;2022-12-07T18:22:09;0.40;;;0.30;;
13475;SDS011;6810;63.824;20.288;2022-12-07T18:24:55;0.50;;;0.20;;
13475;SDS011;6810;63.824;20.288;2022-12-07T18:27:42;0.20;;;0.20;;
13475;SDS011;6810;63.824;20.288;2022-12-07T18:30:29;0.97;;;0.33;;
13475;SDS011;6810;63.824;20.288;2022-12-07T18:33:36;1.37;;;0.20;;
13475;SDS011;6810;63.824;20.288;2022-12-07T18:36:22;2.97;;;0.70;;
13475;SDS011;6810;63.824;20.288;2022-12-07T18:39:09;1.17;;;0.47;;
13475;SDS011;6810;63.824;20.288;2022-12-07T18:41:59;0.00;;;0.00;;
13475;SDS011;6810;63.824;20.288;2022-12-07T18:44:46;0.20;;;0.20;;
13475;SDS011;6810;63.824;20.288;2022-12-07T18:47:33;1.80;;;0.53;;
13475;SDS011;6810;63.824;20.288;2022-12-07T18:50:20;0.30;;;0.30;;
13475;SDS011;6810;63.824;20.288;2022-12-07T18:53:07;0.50;;;0.30;;
13475;SDS011;6810;63.824;20.288;2022-12-07T18:56:04;1.90;;;0.97;;